createdAt,value
2022-12-11T00:02:13.577Z,29.30
2022-12-11T00:04:41.237Z,26.50
2022-12-11T00:07:08.825Z,28.15
2022-12-11T00:09:36.709Z,33.50
2022-12-11T00:12:05.264Z,27.33
2022-12-11T00:14:34.334Z,36.28
2022-12-11T00:17:02.020Z,27.17
2022-12-11T00:19:29.653Z,31.98
2022-12-11T00:21:57.529Z,27.20
2022-12-11T00:24:25.278Z,27.48
2022-12-11T00:26:52.887Z,30.25
2022-12-11T00:29:20.497Z,33.42
2022-12-11T00:31:49.496Z,31.13
2022-12-11T00:34:17.185Z,38.35
2022-12-11T00:36:44.857Z,32.47
2022-12-11T00:39:12.487Z,27.30
2022-12-11T00:41:40.143Z,38.45
2022-12-11T00:44:07.803Z,28.02
2022-12-11T00:46:35.389Z,24.70
2022-12-11T00:49:04.514Z,20.70
2022-12-11T00:51:32.129Z,32.63
2022-12-11T00:53:59.811Z,30.20
2022-12-11T00:56:27.435Z,36.90
2022-12-11T00:58:55.047Z,31.88
2022-12-11T01:01:23.628Z,28.92
2022-12-11T01:03:51.326Z,21.38
2022-12-11T01:06:21.931Z,29.08
2022-12-11T01:09:09.894Z,31.52
2022-12-11T01:11:36.578Z,27.35
2022-12-11T01:14:04.557Z,31.45
2022-12-11T01:16:32.356Z,25.45
2022-12-11T01:19:00.255Z,26.90
2022-12-11T01:21:29.226Z,27.98
2022-12-11T01:23:57.010Z,35.60
2022-12-11T01:26:24.663Z,28.73
2022-12-11T01:28:52.668Z,30.75
2022-12-11T01:31:20.889Z,27.25
2022-12-11T01:33:48.565Z,24.45
2022-12-11T01:36:17.195Z,20.70
2022-12-11T01:38:46.752Z,22.65
2022-12-11T01:41:14.851Z,31.02
2022-12-11T01:43:58.600Z,22.92
2022-12-11T01:46:26.583Z,20.73
2022-12-11T01:48:54.763Z,24.48
2022-12-11T01:51:22.959Z,22.80
2022-12-11T01:53:54.364Z,26.17
2022-12-11T01:56:22.001Z,22.30
2022-12-11T01:58:53.522Z,24.05
2022-12-11T02:01:23.648Z,17.42
2022-12-11T02:03:51.923Z,25.33
2022-12-11T02:06:30.426Z,27.52
2022-12-11T02:08:59.437Z,27.95
2022-12-11T02:11:31.030Z,21.00
2022-12-11T02:14:04.066Z,29.77
2022-12-11T02:16:36.155Z,28.05
2022-12-11T02:19:09.080Z,31.65
2022-12-11T02:21:39.798Z,27.08
2022-12-11T02:24:24.599Z,28.98
2022-12-11T02:26:57.479Z,24.38
2022-12-11T02:29:28.368Z,21.35
2022-12-11T02:31:59.108Z,22.10
2022-12-11T02:34:30.694Z,22.80
2022-12-11T02:37:00.380Z,27.88
2022-12-11T02:39:28.754Z,26.77
2022-12-11T02:41:57.177Z,24.20
2022-12-11T02:44:27.792Z,28.13
2022-12-11T02:46:56.057Z,24.08
2022-12-11T02:49:25.419Z,25.92
2022-12-11T02:51:53.557Z,24.73
2022-12-11T02:54:23.915Z,31.35
2022-12-11T02:56:52.606Z,23.90
2022-12-11T02:59:21.476Z,31.70
2022-12-11T03:01:50.611Z,21.73
2022-12-11T03:04:18.517Z,29.35
2022-12-11T03:06:48.433Z,25.20
2022-12-11T03:09:16.084Z,23.45
2022-12-11T03:11:43.802Z,26.38
2022-12-11T03:14:11.489Z,25.52
2022-12-11T03:16:40.079Z,25.05
2022-12-11T03:19:12.677Z,31.50
2022-12-11T03:21:44.763Z,27.45
2022-12-11T03:24:14.850Z,26.75
2022-12-11T03:26:44.828Z,33.33
2022-12-11T03:29:16.097Z,25.55
2022-12-11T03:31:44.803Z,35.45
2022-12-11T03:34:17.279Z,25.80
2022-12-11T03:36:45.619Z,29.27
2022-12-11T03:39:16.503Z,27.33
2022-12-11T03:41:45.575Z,22.92
2022-12-11T03:44:13.585Z,28.67
2022-12-11T03:46:42.218Z,27.88
2022-12-11T03:49:11.948Z,21.77
2022-12-11T03:51:42.306Z,27.45
2022-12-11T03:54:10.203Z,27.77
2022-12-11T03:56:38.170Z,23.55
2022-12-11T03:59:05.787Z,27.33
2022-12-11T04:01:33.397Z,23.80
2022-12-11T04:04:01.201Z,29.48
2022-12-11T04:06:28.935Z,23.92
2022-12-11T04:08:57.963Z,24.23
2022-12-11T04:11:37.712Z,27.40
2022-12-11T04:14:23.217Z,32.22
2022-12-11T04:16:50.999Z,25.52
2022-12-11T04:19:37.346Z,23.67
2022-12-11T04:22:22.466Z,35.33
2022-12-11T04:24:54.081Z,29.40
2022-12-11T04:27:35.692Z,30.27
2022-12-11T04:30:05.650Z,31.77
2022-12-11T04:32:33.272Z,31.33
2022-12-11T04:35:00.984Z,34.10
2022-12-11T04:37:28.753Z,31.67
2022-12-11T04:39:57.776Z,32.75
2022-12-11T04:42:25.387Z,30.70
2022-12-11T04:44:53.073Z,29.67
2022-12-11T04:47:20.714Z,29.65
2022-12-11T04:49:48.474Z,33.10
2022-12-11T04:52:16.148Z,35.70
2022-12-11T04:54:43.835Z,39.63
2022-12-11T04:57:12.800Z,31.70
2022-12-11T04:59:40.512Z,36.33
2022-12-11T05:02:08.101Z,34.78
2022-12-11T05:04:36.986Z,33.20
2022-12-11T05:07:04.657Z,38.20
2022-12-11T05:09:32.289Z,34.55
2022-12-11T05:12:00.774Z,37.33
2022-12-11T05:14:31.975Z,37.78
2022-12-11T05:16:59.628Z,29.85
2022-12-11T05:19:27.562Z,34.42
2022-12-11T05:21:55.233Z,39.65
2022-12-11T05:24:22.976Z,39.75
2022-12-11T05:26:50.595Z,39.13
2022-12-11T05:29:18.581Z,31.95
2022-12-11T05:31:47.585Z,34.53
2022-12-11T05:34:15.945Z,37.97
2022-12-11T05:36:43.677Z,35.22
2022-12-11T05:39:12.562Z,41.60
2022-12-11T05:41:40.376Z,41.97
2022-12-11T05:44:08.144Z,34.03
2022-12-11T05:46:36.209Z,37.15
2022-12-11T05:49:05.222Z,38.63
2022-12-11T05:51:34.232Z,40.25
2022-12-11T05:54:02.037Z,36.63
2022-12-11T05:56:30.161Z,39.38
2022-12-11T05:58:58.419Z,37.55
2022-12-11T06:01:27.133Z,46.55
2022-12-11T06:03:55.504Z,44.53
2022-12-11T06:06:24.842Z,36.25
2022-12-11T06:08:52.484Z,35.05
2022-12-11T06:11:23.907Z,27.25
2022-12-11T06:13:52.069Z,41.50
2022-12-11T06:16:19.808Z,37.92
2022-12-11T06:18:47.962Z,36.25
2022-12-11T06:21:16.202Z,42.00
2022-12-11T06:23:45.540Z,28.88
2022-12-11T06:26:13.772Z,41.15
2022-12-11T06:28:41.611Z,28.98
2022-12-11T06:31:09.463Z,42.13
2022-12-11T06:33:37.163Z,39.70
2022-12-11T06:36:05.573Z,34.55
2022-12-11T06:38:33.434Z,35.00
2022-12-11T06:41:04.784Z,45.40
2022-12-11T06:43:32.521Z,30.83
2022-12-11T06:46:03.834Z,36.55
2022-12-11T06:48:32.275Z,31.90
2022-12-11T06:50:59.943Z,35.72
2022-12-11T06:53:27.852Z,32.67
2022-12-11T06:55:55.452Z,32.30
2022-12-11T06:58:24.477Z,38.28
2022-12-11T07:00:52.217Z,32.72
2022-12-11T07:03:20.247Z,32.45
2022-12-11T07:05:48.000Z,35.30
2022-12-11T07:08:15.893Z,26.52
2022-12-11T07:10:43.617Z,34.58
2022-12-11T07:13:11.323Z,35.25
2022-12-11T07:15:40.729Z,35.60
2022-12-11T07:18:09.430Z,38.20
2022-12-11T07:20:39.395Z,31.73
2022-12-11T07:23:07.049Z,36.20
2022-12-11T07:25:34.664Z,30.15
2022-12-11T07:28:02.370Z,33.25
2022-12-11T07:30:30.657Z,43.63
2022-12-11T07:33:00.143Z,38.85
2022-12-11T07:35:27.838Z,35.53
2022-12-11T07:37:55.944Z,32.28
2022-12-11T07:40:23.807Z,40.70
2022-12-11T07:42:51.453Z,34.13
2022-12-11T07:45:19.197Z,45.30
2022-12-11T07:47:46.856Z,30.88
2022-12-11T07:50:16.081Z,43.42
2022-12-11T07:52:44.586Z,46.08
2022-12-11T07:55:12.498Z,33.88
2022-12-11T07:57:40.922Z,38.50
2022-12-11T08:00:09.044Z,31.23
2022-12-11T08:02:37.581Z,33.45
2022-12-11T08:05:05.700Z,38.33
2022-12-11T08:07:36.450Z,33.28
2022-12-11T08:10:04.567Z,30.70
2022-12-11T08:12:32.206Z,36.00
2022-12-11T08:14:59.867Z,37.13
2022-12-11T08:17:30.956Z,39.47
2022-12-11T08:19:59.765Z,27.20
2022-12-11T08:22:27.405Z,33.33
2022-12-11T08:24:56.593Z,35.92
2022-12-11T08:27:24.251Z,31.35
2022-12-11T08:29:51.893Z,26.10
2022-12-11T08:32:19.582Z,26.67
2022-12-11T08:34:47.224Z,35.17
2022-12-11T08:37:14.854Z,32.33
2022-12-11T08:39:43.445Z,36.47
2022-12-11T08:42:12.426Z,30.27
2022-12-11T08:44:40.109Z,36.63
2022-12-11T08:47:09.866Z,34.47
2022-12-11T08:49:37.604Z,32.95
2022-12-11T08:52:05.553Z,32.85
2022-12-11T08:54:33.286Z,31.73
2022-12-11T08:57:00.984Z,34.40
2022-12-11T08:59:30.054Z,32.08
2022-12-11T09:01:59.652Z,37.35
2022-12-11T09:04:27.330Z,31.95
2022-12-11T09:06:55.166Z,36.70
2022-12-11T09:09:22.790Z,33.47
2022-12-11T09:11:50.865Z,31.48
2022-12-11T09:14:18.645Z,29.30
2022-12-11T09:16:47.859Z,33.38
2022-12-11T09:19:16.533Z,32.03
2022-12-11T09:21:44.688Z,35.55
2022-12-11T09:24:13.862Z,36.88
2022-12-11T09:26:41.646Z,27.27
2022-12-11T09:29:10.260Z,35.15
2022-12-11T09:31:38.146Z,30.55
2022-12-11T09:34:08.394Z,27.80
2022-12-11T09:36:36.129Z,27.55
2022-12-11T09:39:04.471Z,29.45
2022-12-11T09:41:39.788Z,33.63
2022-12-11T09:44:14.560Z,27.40
2022-12-11T09:46:42.703Z,28.35
2022-12-11T09:49:16.468Z,28.02
2022-12-11T09:51:47.263Z,30.88
2022-12-11T09:54:15.413Z,28.88
2022-12-11T09:56:45.976Z,23.90
2022-12-11T09:59:19.654Z,28.45
2022-12-11T10:01:50.871Z,24.08
2022-12-11T10:04:38.922Z,25.80
2022-12-11T10:07:13.128Z,23.58
2022-12-11T10:09:44.543Z,22.35
2022-12-11T10:12:30.053Z,18.73
2022-12-11T10:15:13.608Z,23.13
2022-12-11T10:17:44.608Z,22.48
2022-12-11T10:20:18.610Z,21.65
2022-12-11T10:22:48.034Z,26.25
2022-12-11T10:25:20.447Z,22.90
2022-12-11T10:27:48.295Z,21.77
2022-12-11T10:30:18.188Z,23.58
2022-12-11T10:32:51.513Z,20.58
2022-12-11T10:35:21.249Z,23.08
2022-12-11T10:37:50.317Z,27.13
2022-12-11T10:40:19.445Z,26.13
2022-12-11T10:42:53.348Z,22.35
2022-12-11T10:45:21.121Z,23.75
2022-12-11T10:47:48.870Z,23.42
2022-12-11T10:50:24.108Z,21.95
2022-12-11T10:52:55.044Z,28.15
2022-12-11T10:55:23.694Z,23.05
2022-12-11T10:57:59.765Z,23.45
2022-12-11T11:00:32.392Z,25.98
2022-12-11T11:03:02.252Z,29.75
2022-12-11T11:05:31.722Z,26.63
2022-12-11T11:08:14.678Z,21.95
2022-12-11T11:10:54.018Z,21.52
2022-12-11T11:13:24.909Z,25.08
2022-12-11T11:15:59.708Z,25.38
2022-12-11T11:18:28.978Z,25.10
2022-12-11T11:20:56.814Z,25.80
2022-12-11T11:23:25.115Z,22.02
2022-12-11T11:25:55.200Z,25.20
2022-12-11T11:28:24.510Z,25.63
2022-12-11T11:30:57.607Z,19.13
2022-12-11T11:33:25.864Z,18.42
2022-12-11T11:35:54.116Z,23.70
2022-12-11T11:38:23.295Z,25.40
2022-12-11T11:40:59.383Z,24.02
2022-12-11T11:43:35.513Z,18.48
2022-12-11T11:46:05.607Z,21.25
2022-12-11T11:48:37.293Z,23.15
2022-12-11T11:51:09.606Z,23.98
2022-12-11T11:53:41.712Z,21.35
2022-12-11T11:56:17.426Z,26.02
2022-12-11T11:58:48.853Z,20.67
2022-12-11T12:01:17.847Z,24.35
2022-12-11T12:03:46.464Z,18.83
2022-12-11T12:06:19.937Z,21.75
2022-12-11T12:08:51.403Z,24.50
2022-12-11T12:11:25.970Z,26.83
2022-12-11T12:14:00.833Z,25.05
2022-12-11T12:19:23.876Z,21.15
2022-12-11T12:21:52.656Z,21.38
2022-12-11T12:24:24.957Z,19.85
2022-12-11T12:26:54.894Z,22.65
2022-12-11T12:29:26.957Z,22.75
2022-12-11T12:32:01.110Z,25.15
2022-12-11T12:34:33.875Z,30.52
2022-12-11T12:37:08.747Z,18.65
2022-12-11T12:39:42.890Z,24.17
2022-12-11T12:42:16.925Z,15.85
2022-12-11T12:44:51.923Z,24.52
2022-12-11T12:47:19.978Z,16.35
2022-12-11T12:49:48.270Z,21.83
2022-12-11T12:52:17.915Z,17.08
2022-12-11T12:55:07.575Z,17.50
2022-12-11T12:57:35.973Z,22.23
2022-12-11T13:00:11.124Z,19.77
2022-12-11T13:02:48.905Z,20.98
2022-12-11T13:05:22.039Z,19.33
2022-12-11T13:07:54.184Z,16.25
2022-12-11T13:10:27.320Z,18.13
2022-12-11T13:12:55.724Z,21.02
2022-12-11T13:15:29.043Z,19.67
2022-12-11T13:17:57.159Z,21.35
2022-12-11T13:20:25.815Z,20.83
2022-12-11T13:23:11.172Z,17.77
2022-12-11T13:25:56.426Z,20.55
2022-12-11T13:28:25.604Z,17.85
2022-12-11T13:31:06.134Z,20.63
2022-12-11T13:33:34.551Z,18.95
2022-12-11T13:36:20.110Z,18.75
2022-12-11T13:38:52.509Z,16.13
2022-12-11T13:41:20.788Z,16.92
2022-12-11T13:43:50.129Z,24.30
2022-12-11T13:46:21.774Z,17.58
2022-12-11T13:48:49.961Z,16.15
2022-12-11T13:51:18.595Z,13.60
2022-12-11T13:53:46.478Z,13.98
2022-12-11T13:56:17.245Z,19.40
2022-12-11T13:58:44.914Z,15.32
2022-12-11T14:01:13.905Z,14.88
2022-12-11T14:03:44.476Z,17.67
2022-12-11T14:06:18.256Z,17.55
2022-12-11T14:08:47.258Z,12.85
2022-12-11T14:11:19.808Z,12.75
2022-12-11T14:13:47.417Z,16.65
2022-12-11T14:16:15.847Z,15.52
2022-12-11T14:18:44.890Z,10.73
2022-12-11T14:21:19.125Z,13.32
2022-12-11T14:23:52.201Z,13.80
2022-12-11T14:26:21.293Z,15.40
2022-12-11T14:28:49.030Z,9.20
2022-12-11T14:31:17.855Z,18.05
2022-12-11T14:33:49.724Z,13.48
2022-12-11T14:36:17.606Z,16.23
2022-12-11T14:38:47.410Z,10.30
2022-12-11T14:41:17.795Z,12.32
2022-12-11T14:43:46.717Z,12.57
2022-12-11T14:46:17.650Z,12.40
2022-12-11T14:48:48.982Z,14.00
2022-12-11T14:51:19.040Z,14.38
2022-12-11T14:53:48.685Z,12.60
2022-12-11T14:56:18.656Z,11.95
2022-12-11T14:58:54.295Z,15.68
2022-12-11T15:01:23.264Z,14.57
2022-12-11T15:03:50.995Z,14.50
2022-12-11T15:06:27.420Z,17.20
2022-12-11T15:08:55.894Z,16.17
2022-12-11T15:11:25.104Z,14.75
2022-12-11T15:13:53.753Z,14.60
2022-12-11T15:16:22.274Z,14.00
2022-12-11T15:18:50.750Z,13.60
2022-12-11T15:21:18.813Z,12.60
2022-12-11T15:23:53.606Z,22.70
2022-12-11T15:26:21.931Z,16.83
2022-12-11T15:29:00.024Z,15.55
2022-12-11T15:31:28.713Z,13.55
2022-12-11T15:33:56.458Z,12.90
2022-12-11T15:36:26.603Z,12.38
2022-12-11T15:38:55.763Z,16.90
2022-12-11T15:41:25.002Z,14.57
2022-12-11T15:43:58.327Z,12.30
2022-12-11T15:46:27.168Z,17.08
2022-12-11T15:48:56.552Z,15.77
2022-12-11T15:51:25.354Z,15.57
2022-12-11T15:53:53.002Z,16.02
2022-12-11T15:56:22.042Z,14.27
2022-12-11T15:58:50.485Z,11.27
2022-12-11T16:01:18.641Z,15.30
2022-12-11T16:03:46.429Z,15.00
2022-12-11T16:06:14.471Z,14.90
2022-12-11T16:08:42.146Z,23.13
2022-12-11T16:11:12.334Z,35.75
2022-12-11T16:13:41.420Z,41.35
2022-12-11T16:16:09.307Z,25.77
2022-12-11T16:18:37.082Z,25.05
2022-12-11T16:21:05.339Z,25.17
2022-12-11T16:23:33.023Z,25.10
2022-12-11T16:26:00.913Z,20.35
2022-12-11T16:28:28.544Z,40.90
2022-12-11T16:30:57.639Z,24.98
2022-12-11T16:33:25.310Z,13.00
2022-12-11T16:35:52.996Z,20.27
2022-12-11T16:38:20.656Z,19.23
2022-12-11T16:40:48.541Z,24.33
2022-12-11T16:43:16.516Z,15.75
2022-12-11T16:45:44.201Z,19.02
2022-12-11T16:48:13.283Z,16.13
2022-12-11T16:50:41.592Z,16.92
2022-12-11T16:53:09.714Z,18.17
2022-12-11T16:55:37.364Z,17.38
2022-12-11T16:58:05.059Z,16.83
2022-12-11T17:00:32.688Z,15.15
2022-12-11T17:03:00.423Z,19.08
2022-12-11T17:05:29.563Z,12.77
2022-12-11T17:07:57.241Z,20.65
2022-12-11T17:10:24.984Z,21.05
2022-12-11T17:12:52.649Z,20.33
2022-12-11T17:15:20.652Z,19.75
2022-12-11T17:17:48.261Z,13.70
2022-12-11T17:20:16.029Z,12.00
2022-12-11T17:22:46.059Z,20.15
2022-12-11T17:25:15.014Z,22.50
2022-12-11T17:27:42.682Z,17.83
2022-12-11T17:30:10.784Z,17.80
2022-12-11T17:32:38.560Z,17.40
2022-12-11T17:35:06.719Z,16.33
2022-12-11T17:37:34.592Z,20.60
2022-12-11T17:40:06.119Z,14.80
2022-12-11T17:42:34.659Z,21.70
2022-12-11T17:45:02.335Z,22.15
2022-12-11T17:47:30.116Z,12.50
2022-12-11T17:49:57.854Z,13.65
2022-12-11T17:52:28.407Z,17.17
2022-12-11T17:55:00.194Z,19.98
2022-12-11T17:57:29.240Z,17.92
2022-12-11T17:59:56.955Z,22.50
2022-12-11T18:02:24.635Z,19.30
2022-12-11T18:04:55.030Z,13.82
2022-12-11T18:07:22.645Z,15.85
2022-12-11T18:09:50.536Z,14.32
2022-12-11T18:12:18.137Z,18.05
2022-12-11T18:14:47.229Z,16.55
2022-12-11T18:17:15.135Z,20.40
2022-12-11T18:19:46.236Z,20.42
2022-12-11T18:22:14.135Z,15.82
2022-12-11T18:24:41.832Z,15.73
2022-12-11T18:27:11.617Z,20.65
2022-12-11T18:29:39.296Z,15.95
2022-12-11T18:32:08.356Z,16.15
2022-12-11T18:34:36.123Z,17.67
2022-12-11T18:37:03.800Z,19.60
2022-12-11T18:39:31.583Z,15.10
2022-12-11T18:42:31.294Z,18.13
2022-12-11T18:44:47.262Z,26.77
2022-12-11T18:47:16.557Z,26.38
2022-12-11T18:49:44.346Z,20.63
2022-12-11T18:52:12.066Z,17.33
2022-12-11T18:54:39.808Z,31.98
2022-12-11T18:57:07.894Z,22.85
2022-12-11T18:59:35.658Z,16.75
2022-12-11T19:02:03.642Z,23.20
2022-12-11T19:04:33.265Z,14.90
2022-12-11T19:07:01.146Z,21.63
2022-12-11T19:09:31.666Z,20.33
2022-12-11T19:12:03.040Z,17.48
2022-12-11T19:14:30.665Z,14.18
2022-12-11T19:16:58.444Z,17.23
2022-12-11T19:19:26.111Z,20.95
2022-12-11T19:21:55.120Z,31.55
2022-12-11T19:24:23.381Z,19.92
2022-12-11T19:26:51.450Z,15.25
2022-12-11T19:29:20.843Z,16.23
2022-12-11T19:31:48.844Z,13.73
2022-12-11T19:34:16.757Z,14.98
2022-12-11T19:36:44.645Z,18.83
2022-12-11T19:39:14.356Z,20.95
2022-12-11T19:41:42.372Z,23.73
2022-12-11T19:44:10.490Z,18.67
2022-12-11T19:46:38.300Z,24.30
2022-12-11T19:49:06.496Z,16.83
2022-12-11T19:51:36.496Z,22.85
2022-12-11T19:54:04.632Z,17.70
2022-12-11T19:56:34.348Z,17.10
2022-12-11T19:59:02.973Z,16.85
2022-12-11T20:01:31.337Z,18.35
2022-12-11T20:03:59.773Z,23.58
2022-12-11T20:06:28.237Z,15.27
2022-12-11T20:08:56.285Z,19.00
2022-12-11T20:11:24.051Z,22.92
2022-12-11T20:13:55.465Z,20.80
2022-12-11T20:16:45.758Z,21.13
2022-12-11T20:19:11.158Z,20.77
2022-12-11T20:21:38.845Z,15.93
2022-12-11T20:24:06.820Z,18.00
2022-12-11T20:26:36.567Z,23.23
2022-12-11T20:29:07.471Z,15.98
2022-12-11T20:31:35.830Z,23.33
2022-12-11T20:34:03.582Z,112.10
2022-12-11T20:36:31.204Z,60.75
2022-12-11T20:38:58.900Z,44.33
2022-12-11T20:41:26.899Z,87.75
2022-12-11T20:43:54.682Z,32.55
2022-12-11T20:46:24.974Z,36.45
2022-12-11T20:48:53.109Z,90.20
2022-12-11T20:51:25.682Z,57.67
2022-12-11T20:53:57.430Z,81.53
2022-12-11T20:56:25.488Z,24.75
2022-12-11T20:58:53.208Z,30.38
2022-12-11T21:01:22.259Z,20.42
2022-12-11T21:03:52.296Z,33.03
2022-12-11T21:06:21.178Z,51.45
2022-12-11T21:08:49.019Z,24.55
2022-12-11T21:11:16.735Z,22.55
2022-12-11T21:13:44.736Z,20.63
2022-12-11T21:16:12.598Z,20.25
2022-12-11T21:18:44.856Z,21.13
2022-12-11T21:21:13.987Z,25.85
2022-12-11T21:23:41.736Z,19.90
2022-12-11T21:26:09.439Z,25.88
2022-12-11T21:28:37.180Z,31.52
2022-12-11T21:31:06.045Z,23.00
2022-12-11T21:33:34.110Z,23.30
2022-12-11T21:36:01.846Z,24.67
2022-12-11T21:38:30.986Z,22.42
2022-12-11T21:40:58.724Z,20.80
2022-12-11T21:43:26.431Z,27.55
2022-12-11T21:46:02.398Z,26.73
2022-12-11T21:48:30.290Z,25.70
2022-12-11T21:51:05.080Z,25.48
2022-12-11T21:53:34.254Z,21.67
2022-12-11T21:56:04.947Z,24.77
2022-12-11T21:58:32.527Z,25.25
2022-12-11T22:01:00.249Z,28.13
2022-12-11T22:03:27.865Z,25.92
2022-12-11T22:05:55.561Z,19.63
2022-12-11T22:08:23.435Z,24.63
2022-12-11T22:10:52.509Z,21.10
2022-12-11T22:13:20.237Z,22.30
2022-12-11T22:15:47.927Z,16.15
2022-12-11T22:18:15.677Z,14.63
2022-12-11T22:20:43.808Z,21.55
2022-12-11T22:23:11.474Z,27.08
2022-12-11T22:25:39.367Z,27.27
2022-12-11T22:28:08.388Z,23.77
2022-12-11T22:30:36.120Z,19.65
2022-12-11T22:33:03.764Z,25.25
2022-12-11T22:35:31.393Z,20.55
2022-12-11T22:37:59.054Z,29.40
2022-12-11T22:40:26.870Z,18.90
2022-12-11T22:42:54.732Z,27.27
2022-12-11T22:45:23.777Z,30.77
2022-12-11T22:47:51.432Z,23.60
2022-12-11T22:50:19.697Z,22.25
2022-12-11T22:52:47.481Z,25.38
2022-12-11T22:55:15.552Z,22.33
2022-12-11T22:57:43.170Z,18.92
2022-12-11T23:00:12.181Z,18.58
2022-12-11T23:02:41.285Z,26.23
2022-12-11T23:05:15.615Z,26.02
2022-12-11T23:07:43.412Z,21.00
2022-12-11T23:10:11.775Z,24.60
2022-12-11T23:12:39.455Z,17.42
2022-12-11T23:15:08.020Z,23.30
2022-12-11T23:17:36.044Z,24.42
2022-12-11T23:20:05.825Z,26.00
2022-12-11T23:22:33.622Z,26.48
2022-12-11T23:25:01.341Z,30.95
2022-12-11T23:27:28.977Z,26.83
2022-12-11T23:29:56.643Z,24.73
2022-12-11T23:32:24.580Z,35.08
2022-12-11T23:34:52.305Z,33.67
2022-12-11T23:37:21.290Z,26.13
2022-12-11T23:39:48.922Z,24.02
2022-12-11T23:42:16.588Z,43.42
2022-12-11T23:44:44.206Z,31.95
2022-12-11T23:47:12.036Z,29.42
2022-12-11T23:49:39.694Z,26.40
2022-12-11T23:52:07.323Z,29.30
2022-12-11T23:54:36.332Z,36.03
2022-12-11T23:57:03.968Z,19.15
2022-12-11T23:59:31.666Z,25.58
